Albany, New York
Traffic Map
Current Weather Conditions
Albany, New York
Overcast Light Snow
Overcast
29°
Feels Like: 19°
Wind Chill: 19° Ceiling: 3600
Heat Index: 29° Visibility: 7mi
Dew Point: 21° Wind: 12mph
Humidity: 72% Direction: 320° (NW)
Pressure: 29.92in Gusts: 0mph
Raw Report DataKALB 281851Z 32010KT 7SM -SN SCT024 BKN036 OVC044 M02/M06 A2992 RMK AO2 SLP133 P0001 T10171061
Traffic Incident Summary
Active as of:
Severity:
Category:
InformationThere was an issue retrieving the traffic information for this location. Please try a different location or try again shortly.
Advertisements
Track Severe Weather on mobile